Time;durP1;ratioP1;P1;durP2;ratioP2;P2;SDS_P1;SDS_P2;PMS_P1;PMS_P2;Temp;Humidity;BMP_temperature;BMP_pressure;BME280_temperature;BME280_humidity;BME280_pressure;Samples;Min_cycle;Max_cycle;Signal;HPM_P1;HPM_P2
2022/12/15 00:40:24;;;;;;;33.25;19.02;;;-4.40;99.90;;;;;;5068561;28;20055;-82
2022/12/15 00:42:50;;;;;;;33.20;19.38;;;-4.40;99.90;;;;;;5066836;28;20487;-85
2022/12/15 00:45:15;;;;;;;32.35;19.10;;;-4.40;99.90;;;;;;5068905;28;20040;-86
2022/12/15 00:47:41;;;;;;;28.80;18.80;;;-4.30;99.90;;;;;;5069146;28;20051;-85
2022/12/15 01:20:19;;;;;;;28.75;18.05;;;-4.40;99.90;;;;;;5086730;28;21894;-82
2022/12/15 01:22:47;;;;;;;29.50;18.48;;;-4.50;99.90;;;;;;5084079;28;20047;-83
2022/12/15 01:25:13;;;;;;;32.17;18.80;;;-4.40;99.90;;;;;;5103755;28;20173;-84
2022/12/15 01:27:39;;;;;;;35.30;20.13;;;-4.40;99.90;;;;;;5068755;28;20063;-84
2022/12/15 01:30:06;;;;;;;30.58;18.52;;;-4.40;99.90;;;;;;5088367;28;20040;-84
2022/12/15 01:32:32;;;;;;;29.60;18.20;;;-4.40;99.90;;;;;;5082171;28;20128;-84
2022/12/15 01:34:58;;;;;;;29.45;18.15;;;-4.30;99.90;;;;;;5065681;28;20063;-84
2022/12/15 01:37:24;;;;;;;33.35;18.70;;;-4.30;99.90;;;;;;5067886;28;20048;-84
2022/12/15 01:42:33;;;;;;;27.08;17.45;;;-4.30;99.90;;;;;;5098433;28;20444;-84
2022/12/15 01:45:46;;;;;;;29.15;18.13;;;-4.40;99.90;;;;;;5069705;28;20288;-84
2022/12/15 01:48:16;;;;;;;28.88;17.40;;;-4.40;99.90;;;;;;5084933;28;20173;-84
2022/12/15 01:50:48;;;;;;;28.08;17.92;;;-4.50;99.90;;;;;;5085178;28;20495;-84
2022/12/15 01:53:14;;;;;;;29.55;18.20;;;-4.50;99.90;;;;;;5072890;28;20044;-84
2022/12/15 01:55:42;;;;;;;28.25;17.85;;;-4.50;99.90;;;;;;5086884;28;20551;-84
2022/12/15 01:58:10;;;;;;;27.38;17.77;;;-4.50;99.90;;;;;;5078960;28;21277;-83
2022/12/15 02:00:36;;;;;;;30.30;18.13;;;-4.50;99.90;;;;;;5066351;28;20049;-83
2022/12/15 02:03:03;;;;;;;26.35;17.85;;;-4.50;99.90;;;;;;5083208;28;20050;-83
2022/12/15 02:05:30;;;;;;;;;;;-4.50;99.90;;;;;;5080543;28;20045;-84
2022/12/15 02:07:58;;;;;;;28.48;17.13;;;-4.50;99.90;;;;;;5066136;28;19920;-84
2022/12/15 02:10:35;;;;;;;29.13;17.60;;;-4.50;99.90;;;;;;5083054;28;20048;-84
2022/12/15 02:13:18;;;;;;;29.60;17.42;;;-4.50;99.90;;;;;;5083495;28;20067;-83
2022/12/15 02:16:13;;;;;;;29.35;18.10;;;-4.50;99.90;;;;;;5103812;27;20051;-84
2022/12/15 02:19:09;;;;;;;27.60;17.67;;;-4.50;99.90;;;;;;5081156;28;20052;-84
2022/12/15 02:21:45;;;;;;;24.70;16.30;;;-4.40;99.90;;;;;;5076369;28;20088;-85
2022/12/15 02:24:41;;;;;;;28.15;17.83;;;-4.50;99.90;;;;;;5085441;28;20033;-84
2022/12/15 02:27:17;;;;;;;32.10;17.83;;;-4.40;99.90;;;;;;5063772;28;20044;-84
2022/12/15 02:29:56;;;;;;;30.60;17.00;;;-4.40;99.90;;;;;;5084100;28;20679;-84
2022/12/15 02:32:58;;;;;;;28.00;17.38;;;-4.40;99.90;;;;;;5101671;27;20059;-84
2022/12/15 02:35:42;;;;;;;27.23;16.67;;;-4.40;99.90;;;;;;5056238;28;20052;-84
2022/12/15 02:38:08;;;;;;;28.05;16.50;;;-4.40;99.90;;;;;;5067221;28;20055;-84
2022/12/15 02:40:35;;;;;;;26.38;17.13;;;-4.40;99.90;;;;;;5084306;28;20089;-83
2022/12/15 02:43:03;;;;;;;26.15;16.60;;;-4.50;99.90;;;;;;5084748;28;20048;-83
2022/12/15 02:45:45;;;;;;;27.13;16.63;;;-4.50;99.90;;;;;;5082485;28;20495;-84
2022/12/15 02:48:45;;;;;;;25.30;16.90;;;-4.50;99.90;;;;;;5068679;28;20078;-88
2022/12/15 02:51:32;;;;;;;27.40;17.58;;;-4.50;99.90;;;;;;5082467;28;20119;-88
2022/12/15 02:54:29;;;;;;;26.33;16.20;;;-4.50;99.90;;;;;;5099528;28;20044;-89
2022/12/15 02:57:30;;;;;;;28.23;17.50;;;-4.50;99.90;;;;;;5073518;28;20503;-89
2022/12/15 03:00:02;;;;;;;29.35;17.48;;;-4.50;99.90;;;;;;5081308;28;20085;-88
2022/12/15 03:02:31;;;;;;;26.35;17.52;;;-4.40;99.90;;;;;;5064533;28;20052;-88
2022/12/15 03:04:57;;;;;;;30.33;18.13;;;-4.40;99.90;;;;;;5065764;28;20048;-88
2022/12/15 03:07:26;;;;;;;28.98;17.83;;;-4.40;99.90;;;;;;5082832;28;20067;-88
2022/12/15 03:09:57;;;;;;;26.30;17.35;;;-4.30;99.90;;;;;;5084721;28;20048;-89
2022/12/15 03:12:23;;;;;;;28.90;18.70;;;-4.30;99.90;;;;;;5086669;28;20036;-89
2022/12/15 03:14:48;;;;;;;27.95;17.88;;;-4.30;99.90;;;;;;5062833;28;20377;-89
2022/12/15 03:17:14;;;;;;;27.35;17.45;;;-4.30;99.90;;;;;;5067315;28;20152;-88
2022/12/15 03:19:40;;;;;;;27.60;17.60;;;-4.20;99.90;;;;;;5084401;28;20097;-89
2022/12/15 03:22:06;;;;;;;29.35;18.20;;;-4.20;99.90;;;;;;5080823;28;20040;-88
2022/12/15 03:24:31;;;;;;;30.30;18.02;;;-4.10;99.90;;;;;;5081060;28;20610;-89
2022/12/15 03:26:57;;;;;;;30.23;17.65;;;-4.10;99.90;;;;;;5080711;28;20072;-90
2022/12/15 03:29:23;;;;;;;26.02;17.90;;;-4.10;99.90;;;;;;5083434;28;20105;-87
2022/12/15 03:31:48;;;;;;;28.00;17.90;;;-4.10;99.90;;;;;;5064981;28;20443;-87
2022/12/15 03:34:14;;;;;;;27.65;17.35;;;-4.20;99.90;;;;;;5068164;28;20527;-87
2022/12/15 03:36:39;;;;;;;29.75;17.00;;;-4.10;99.90;;;;;;5065621;28;20044;-87
2022/12/15 03:39:05;;;;;;;26.23;17.48;;;-4.10;99.90;;;;;;5067089;28;20132;-87
2022/12/15 03:41:31;;;;;;;31.20;18.35;;;-4.20;99.90;;;;;;5081373;28;20055;-87
2022/12/15 03:43:57;;;;;;;27.48;17.20;;;-4.20;99.90;;;;;;5063293;28;20107;-87
2022/12/15 03:46:22;;;;;;;28.65;17.27;;;-4.10;99.90;;;;;;5066617;28;20044;-87
2022/12/15 03:48:49;;;;;;;27.38;17.20;;;-4.10;99.90;;;;;;5066604;28;20465;-90
2022/12/15 03:51:15;;;;;;;27.98;17.15;;;-4.10;99.90;;;;;;5083177;28;20091;-87
2022/12/15 03:53:40;;;;;;;25.70;16.75;;;-4.10;99.90;;;;;;5063996;28;20076;-87
2022/12/15 03:56:06;;;;;;;26.63;16.83;;;-4.10;99.90;;;;;;5062882;28;20094;-87
2022/12/15 03:58:32;;;;;;;26.55;17.40;;;-4.10;99.90;;;;;;5081006;28;20051;-87
2022/12/15 04:00:58;;;;;;;27.25;17.20;;;-4.00;99.90;;;;;;5065800;28;20036;-87
2022/12/15 04:03:23;;;;;;;26.13;17.08;;;-4.00;99.90;;;;;;5085753;28;20036;-88
2022/12/15 04:05:49;;;;;;;27.42;17.73;;;-4.00;99.90;;;;;;5064278;28;20698;-88
2022/12/15 04:08:15;;;;;;;26.45;17.02;;;-4.10;99.90;;;;;;5063183;28;20067;-89
2022/12/15 04:10:42;;;;;;;28.75;17.02;;;-4.10;99.90;;;;;;5087056;28;20105;-89
2022/12/15 04:13:10;;;;;;;26.65;16.45;;;-4.10;99.90;;;;;;5084580;28;20051;-89
2022/12/15 04:15:38;;;;;;;27.38;17.10;;;-4.10;99.90;;;;;;5084921;28;20048;-89
2022/12/15 04:18:06;;;;;;;25.90;17.35;;;-4.10;99.90;;;;;;5088127;28;20071;-89
2022/12/15 04:20:32;;;;;;;25.38;16.60;;;-4.10;99.90;;;;;;5070502;28;20135;-89
2022/12/15 04:22:59;;;;;;;23.63;15.27;;;-4.10;99.90;;;;;;5090126;28;20043;-89
2022/12/15 05:34:15;;;;;;;25.73;15.45;;;-4.10;99.90;;;;;;5086558;28;20104;-88
2022/12/15 05:36:41;;;;;;;25.23;15.18;;;-4.10;99.90;;;;;;5068458;28;20536;-89
2022/12/15 05:39:07;;;;;;;26.50;15.48;;;-4.10;99.90;;;;;;5088362;28;20050;-88
2022/12/15 05:41:32;;;;;;;23.23;15.50;;;-4.10;99.90;;;;;;5087561;28;20048;-89
2022/12/15 05:43:58;;;;;;;23.85;15.32;;;-4.10;99.90;;;;;;5085393;28;20172;-89
2022/12/15 05:46:24;;;;;;;27.38;15.95;;;-4.00;99.90;;;;;;5066997;28;20036;-89
2022/12/15 05:48:49;;;;;;;23.70;16.85;;;-4.00;99.90;;;;;;5081631;28;20094;-89
2022/12/15 05:51:15;;;;;;;25.10;15.55;;;-4.00;99.90;;;;;;5079116;28;20044;-88
2022/12/15 05:53:41;;;;;;;24.10;15.77;;;-4.00;99.90;;;;;;5090979;28;20043;-89
2022/12/15 05:56:10;;;;;;;22.67;15.55;;;-4.10;99.90;;;;;;5090273;28;20540;-89
2022/12/15 05:58:37;;;;;;;23.27;15.30;;;-4.10;99.90;;;;;;5072138;28;20044;-89
2022/12/15 06:01:08;;;;;;;23.88;15.65;;;-4.10;99.90;;;;;;5090016;28;20040;-90
2022/12/15 06:03:34;;;;;;;21.95;14.68;;;-4.10;99.90;;;;;;5090617;28;20047;-89
2022/12/15 06:06:01;;;;;;;22.40;15.07;;;-4.10;99.90;;;;;;5090891;28;20044;-89
2022/12/15 06:08:33;;;;;;;21.55;14.98;;;-4.10;99.90;;;;;;5072725;28;20044;-89
2022/12/15 06:10:59;;;;;;;22.00;15.07;;;-4.10;99.90;;;;;;5092829;28;20507;-89
2022/12/15 06:13:26;;;;;;;24.98;15.32;;;-4.10;99.90;;;;;;5071956;28;20092;-89
2022/12/15 06:16:00;;;;;;;23.75;15.38;;;-4.10;99.90;;;;;;5091625;28;20045;-89
2022/12/15 06:18:31;;;;;;;26.63;15.85;;;-4.10;99.90;;;;;;5072945;28;20044;-89
2022/12/15 06:21:11;;;;;;;28.65;15.57;;;-4.20;99.90;;;;;;5088612;28;20048;-88
2022/12/15 06:23:37;;;;;;;24.08;15.93;;;-4.20;99.90;;;;;;5072833;28;20062;-89
2022/12/15 06:26:10;;;;;;;21.75;14.82;;;-4.10;99.90;;;;;;5104612;28;20135;-89
2022/12/15 06:28:36;;;;;;;25.70;16.67;;;-4.10;99.90;;;;;;5066660;28;20063;-85
2022/12/15 06:31:04;;;;;;;26.23;18.52;;;-4.10;99.90;;;;;;5080293;28;20055;-86
2022/12/15 06:33:30;;;;;;;38.28;25.13;;;-4.10;99.90;;;;;;5082591;28;20069;-86
2022/12/15 06:35:55;;;;;;;34.63;24.13;;;-4.10;99.90;;;;;;5065165;28;20556;-86
2022/12/15 06:38:21;;;;;;;31.23;21.67;;;-4.10;99.90;;;;;;5079141;28;20052;-75
2022/12/15 06:40:58;;;;;;;27.67;18.75;;;-4.10;99.90;;;;;;5093509;27;20040;-85
2022/12/15 06:43:24;;;;;;;31.15;19.83;;;-4.10;99.90;;;;;;5061139;28;20071;-89
2022/12/15 06:45:50;;;;;;;32.30;20.23;;;-4.00;99.90;;;;;;5062245;28;20107;-89
2022/12/15 06:48:17;;;;;;;32.53;20.23;;;-4.00;99.90;;;;;;5057043;28;20074;-88
2022/12/15 06:50:44;;;;;;;31.67;20.08;;;-3.90;99.90;;;;;;5081421;28;20088;-88
2022/12/15 06:53:11;;;;;;;30.35;19.35;;;-3.90;99.90;;;;;;5062577;28;20047;-88
2022/12/15 06:55:37;;;;;;;28.42;19.92;;;-3.90;99.90;;;;;;5060340;28;20126;-87
2022/12/15 06:58:03;;;;;;;28.20;19.65;;;-3.90;99.90;;;;;;5079448;28;20509;-93
2022/12/15 07:00:29;;;;;;;26.00;18.10;;;-3.90;99.90;;;;;;5087620;28;20040;-93
2022/12/15 07:02:54;;;;;;;25.35;17.55;;;-3.90;99.90;;;;;;5066676;28;20040;-93
2022/12/15 07:05:21;;;;;;;27.13;17.23;;;-3.90;99.90;;;;;;5066426;28;20036;-93
2022/12/15 07:07:47;;;;;;;28.60;18.13;;;-3.90;99.90;;;;;;5087464;28;20050;-92
2022/12/15 07:10:13;;;;;;;26.20;18.10;;;-3.80;99.90;;;;;;5063196;28;20043;-92
2022/12/15 07:12:39;;;;;;;27.60;18.08;;;-3.80;99.90;;;;;;5069842;28;20146;-92
2022/12/15 07:15:06;;;;;;;29.23;18.80;;;-3.80;99.90;;;;;;5068257;28;20123;-93
2022/12/15 07:17:34;;;;;;;30.30;19.23;;;-3.80;99.90;;;;;;5071162;28;20044;-92
2022/12/15 07:20:00;;;;;;;27.70;17.80;;;-3.80;99.90;;;;;;5068661;28;20052;-93
2022/12/15 07:22:27;;;;;;;25.27;17.70;;;-3.80;99.90;;;;;;5065900;28;21996;-93
2022/12/15 07:24:53;;;;;;;25.73;17.65;;;-3.80;99.90;;;;;;5094304;28;20410;-93
2022/12/15 07:27:19;;;;;;;25.70;17.38;;;-3.90;99.90;;;;;;5083452;28;20035;-93
2022/12/15 07:29:45;;;;;;;28.25;17.55;;;-3.80;99.90;;;;;;5085432;28;20066;-93
2022/12/15 07:32:11;;;;;;;25.13;17.40;;;-3.80;99.90;;;;;;5066628;28;20433;-94
2022/12/15 07:34:39;;;;;;;27.55;17.33;;;-3.80;99.90;;;;;;5080557;28;20699;-93
2022/12/15 07:37:04;;;;;;;27.58;18.88;;;-3.80;99.90;;;;;;5098546;28;20525;-94
2022/12/15 07:39:30;;;;;;;28.27;18.60;;;-3.80;99.90;;;;;;5065275;28;20044;-92
2022/12/15 07:41:56;;;;;;;28.95;18.25;;;-3.80;99.90;;;;;;5080043;28;20118;-94
2022/12/15 07:44:22;;;;;;;28.35;17.92;;;-3.70;99.90;;;;;;5077652;28;20922;-94
2022/12/15 07:46:48;;;;;;;24.33;16.67;;;-3.80;99.90;;;;;;5073936;28;20055;-94
2022/12/15 07:49:16;;;;;;;27.65;16.85;;;-3.70;99.90;;;;;;5086522;28;20079;-93
2022/12/15 07:51:42;;;;;;;;;;;-3.70;99.90;;;;;;5071467;28;20959;-93
2022/12/15 07:54:11;;;;;;;30.40;18.75;;;-3.70;99.90;;;;;;5087503;28;20014;-92
2022/12/15 07:56:40;;;;;;;41.97;23.08;;;-3.60;99.90;;;;;;5074973;28;20648;-92
2022/12/15 07:59:07;;;;;;;48.40;29.42;;;-3.60;99.90;;;;;;5068452;28;20093;-92
2022/12/15 08:01:36;;;;;;;35.53;23.15;;;-3.60;99.90;;;;;;5069514;28;20040;-92
2022/12/15 08:04:02;;;;;;;31.70;21.30;;;-3.60;99.90;;;;;;5072962;28;20044;-93
2022/12/15 08:06:31;;;;;;;29.10;20.83;;;-3.50;99.90;;;;;;5074384;28;20071;-92
2022/12/15 08:08:57;;;;;;;30.52;19.92;;;-3.50;99.90;;;;;;5074355;28;20083;-93
2022/12/15 08:11:24;;;;;;;31.17;20.17;;;-3.40;99.90;;;;;;5092644;28;20031;-92
2022/12/15 08:13:51;;;;;;;26.40;18.17;;;-3.40;99.90;;;;;;5071999;28;20495;-92
2022/12/15 08:16:17;;;;;;;30.52;18.63;;;-3.30;99.90;;;;;;5069390;28;20044;-91
2022/12/15 08:18:43;;;;;;;27.42;18.67;;;-3.30;99.90;;;;;;5079932;28;20048;-83
2022/12/15 08:21:10;;;;;;;30.35;19.20;;;-3.20;99.90;;;;;;5082872;28;20032;-83
2022/12/15 08:23:37;;;;;;;26.98;17.73;;;-3.20;99.90;;;;;;5089623;28;20044;-86
2022/12/15 08:26:04;;;;;;;;;;;-3.10;99.90;;;;;;5067038;28;20056;-82
2022/12/15 08:28:31;;;;;;;24.20;16.77;;;-3.10;99.90;;;;;;5084674;28;19927;-80
2022/12/15 08:31:10;;;;;;;35.38;18.10;;;-3.00;99.90;;;;;;5070096;28;20047;-81
2022/12/15 08:33:36;;;;;;;29.92;18.77;;;-3.00;99.90;;;;;;5084521;28;20507;-88
2022/12/15 08:36:06;;;;;;;24.05;18.02;;;-2.90;99.90;;;;;;5089085;28;20040;-85
2022/12/15 08:38:34;;;;;;;29.23;18.67;;;-2.80;99.90;;;;;;5085246;28;20056;-83
2022/12/15 08:41:17;;;;;;;28.38;18.70;;;-2.80;99.90;;;;;;5086276;28;20481;-82
2022/12/15 08:43:43;;;;;;;26.85;19.10;;;-2.70;99.90;;;;;;5087373;28;20093;-77
2022/12/15 08:46:09;;;;;;;28.08;19.10;;;-2.70;99.90;;;;;;5080888;28;20055;-81
2022/12/15 08:48:35;;;;;;;28.20;18.75;;;-2.70;99.90;;;;;;5089156;28;20044;-82
2022/12/15 08:51:01;;;;;;;29.52;19.30;;;-2.70;99.90;;;;;;5082069;28;20052;-83
2022/12/15 08:53:27;;;;;;;28.38;20.15;;;-2.60;99.90;;;;;;5080926;28;20080;-82
2022/12/15 08:55:53;;;;;;;31.27;20.40;;;-2.60;99.90;;;;;;5064763;28;20076;-86
2022/12/15 08:58:18;;;;;;;26.85;20.20;;;-2.60;99.90;;;;;;5066869;28;20052;-82
2022/12/15 09:00:45;;;;;;;28.00;20.10;;;-2.60;99.90;;;;;;5068602;28;20457;-80
2022/12/15 09:03:10;;;;;;;28.70;20.15;;;-2.50;99.90;;;;;;5071207;28;20044;-82
2022/12/15 09:05:37;;;;;;;29.02;21.00;;;-2.50;99.90;;;;;;5089344;28;20503;-77
2022/12/15 09:08:04;;;;;;;31.83;20.50;;;-2.50;99.90;;;;;;5088473;28;20047;-91
2022/12/15 09:10:30;;;;;;;30.65;19.67;;;-2.50;99.90;;;;;;5073339;28;20373;-89
2022/12/15 09:12:55;;;;;;;29.73;20.15;;;-2.40;99.90;;;;;;5103035;28;20040;-89
2022/12/15 09:15:21;;;;;;;30.42;19.95;;;-2.40;99.90;;;;;;5067609;28;20051;-79
2022/12/15 09:17:47;;;;;;;28.17;19.63;;;-2.40;99.90;;;;;;5082146;28;20040;-86
2022/12/15 09:20:13;;;;;;;29.08;19.17;;;-2.30;99.90;;;;;;5104762;28;20052;-86
2022/12/15 09:22:40;;;;;;;29.17;19.15;;;-2.30;99.90;;;;;;5089590;28;20071;-83
2022/12/15 09:25:06;;;;;;;26.05;19.02;;;-2.30;99.90;;;;;;5062766;28;20475;-86
2022/12/15 09:27:33;;;;;;;26.75;18.67;;;-2.20;99.90;;;;;;5083615;28;20052;-79
2022/12/15 09:30:00;;;;;;;29.77;19.42;;;-2.20;99.90;;;;;;5066332;28;20120;-82
2022/12/15 09:32:25;;;;;;;31.00;20.50;;;-2.10;99.90;;;;;;5067586;28;20044;-84
2022/12/15 09:34:52;;;;;;;30.60;20.58;;;-2.10;99.90;;;;;;5085921;28;20040;-84
2022/12/15 09:37:18;;;;;;;29.03;20.50;;;-2.00;99.90;;;;;;5061473;28;20040;-83
2022/12/15 09:39:44;;;;;;;27.15;19.83;;;-2.00;99.90;;;;;;5083068;28;20031;-92
2022/12/15 09:42:25;;;;;;;28.95;20.85;;;-2.00;99.90;;;;;;5075626;28;20036;-80
2022/12/15 09:45:06;;;;;;;30.27;21.60;;;-1.90;99.90;;;;;;5100668;28;20403;-80
2022/12/15 09:47:56;;;;;;;43.92;27.48;;;-1.90;99.90;;;;;;5089664;28;20048;-81
2022/12/15 09:50:28;;;;;;;39.58;25.90;;;-1.80;99.90;;;;;;5084785;28;20064;-78
2022/12/15 09:52:59;;;;;;;41.25;26.92;;;-1.70;99.90;;;;;;5065210;28;20048;-78
2022/12/15 09:55:27;;;;;;;35.13;24.52;;;-1.60;99.90;;;;;;5084436;28;20085;-77
2022/12/15 09:57:59;;;;;;;29.60;22.23;;;-1.50;99.90;;;;;;5085173;28;20075;-77
2022/12/15 10:00:39;;;;;;;28.90;21.38;;;-1.40;99.90;;;;;;5085067;28;20040;-79
2022/12/15 10:03:39;;;;;;;27.13;20.00;;;-1.30;99.90;;;;;;5088854;28;20647;-77
2022/12/15 10:06:13;;;;;;;31.23;21.60;;;-1.20;99.90;;;;;;5083715;28;20121;-80
2022/12/15 10:08:54;;;;;;;26.90;20.33;;;-1.20;99.90;;;;;;5082437;28;20036;-82
2022/12/15 10:11:27;;;;;;;33.28;20.60;;;-1.20;99.90;;;;;;5086281;28;20044;-78
2022/12/15 10:14:12;;;;;;;29.63;20.27;;;-1.20;99.90;;;;;;5087332;28;20043;-79
2022/12/15 10:17:12;;;;;;;28.73;19.95;;;-1.20;99.90;;;;;;5087415;28;20102;-75
2022/12/15 10:19:54;;;;;;;30.23;20.02;;;-1.10;99.90;;;;;;5069705;28;20048;-80
2022/12/15 10:22:25;;;;;;;27.70;19.98;;;-1.10;99.90;;;;;;5080138;28;20082;-77
2022/12/15 10:24:53;;;;;;;28.30;20.20;;;-1.10;99.90;;;;;;5066916;28;20047;-80
2022/12/15 10:27:46;;;;;;;28.27;20.30;;;-1.00;99.90;;;;;;5068053;28;20044;-80
2022/12/15 10:30:13;;;;;;;26.40;20.30;;;-1.00;99.90;;;;;;5088026;28;20058;-80
2022/12/15 10:32:50;;;;;;;27.92;20.90;;;-1.00;99.90;;;;;;5088949;28;20100;-80
2022/12/15 10:35:31;;;;;;;30.38;20.33;;;-1.00;99.90;;;;;;5070529;28;20052;-80
2022/12/15 10:38:05;;;;;;;31.48;20.60;;;-1.00;99.90;;;;;;5050706;28;20181;-75
2022/12/15 10:40:53;;;;;;;27.80;19.85;;;-1.00;99.90;;;;;;5064155;28;20044;-78
2022/12/15 10:43:35;;;;;;;30.17;20.02;;;-1.00;99.90;;;;;;5083713;28;20052;-82
2022/12/15 10:46:02;;;;;;;32.95;21.58;;;-1.00;99.90;;;;;;5086444;28;20075;-79
2022/12/15 10:48:28;;;;;;;30.05;21.40;;;-1.00;99.90;;;;;;5069376;28;20048;-78
2022/12/15 10:51:12;;;;;;;32.85;24.25;;;-0.90;99.90;;;;;;5086183;28;20100;-77
2022/12/15 10:54:02;;;;;;;33.63;24.92;;;-0.90;99.90;;;;;;5083326;28;20130;-76
2022/12/15 10:56:30;;;;;;;32.85;23.25;;;-0.90;99.90;;;;;;5056901;28;21100;-76
2022/12/15 10:58:58;;;;;;;33.50;23.85;;;-0.80;99.90;;;;;;5084057;28;20051;-81
2022/12/15 11:01:34;;;;;;;30.38;22.40;;;-0.80;99.90;;;;;;5079610;28;20097;-79
2022/12/15 11:04:00;;;;;;;30.38;22.77;;;-0.80;99.90;;;;;;5067450;28;20054;-80
2022/12/15 11:06:30;;;;;;;39.05;27.60;;;-0.70;99.90;;;;;;5085211;28;20479;-76
2022/12/15 11:09:06;;;;;;;55.80;35.50;;;-0.70;99.90;;;;;;5084017;28;20048;-80
2022/12/15 11:14:24;;;;;;;29.88;23.70;;;-0.60;99.90;;;;;;5065423;28;20056;-79
2022/12/15 11:16:55;;;;;;;107.93;71.80;;;-0.60;99.90;;;;;;5086170;28;20024;-84
2022/12/15 11:19:29;;;;;;;69.93;45.67;;;-0.60;99.90;;;;;;5084713;28;20084;-78
2022/12/15 11:22:02;;;;;;;130.15;78.45;;;-0.60;99.90;;;;;;5083265;28;20150;-86
2022/12/15 11:24:41;;;;;;;33.97;24.88;;;-0.60;99.90;;;;;;5067793;28;20048;-81
2022/12/15 11:27:38;;;;;;;30.25;23.38;;;-0.50;99.90;;;;;;5098203;28;20063;-80
2022/12/15 11:30:16;;;;;;;32.78;24.05;;;-0.40;99.90;;;;;;5068541;28;20048;-75
2022/12/15 11:32:47;;;;;;;32.28;23.38;;;-0.40;99.90;;;;;;5064491;28;20065;-76
2022/12/15 11:35:24;;;;;;;34.95;25.25;;;-0.30;99.90;;;;;;5065773;28;20036;-80
2022/12/15 11:38:18;;;;;;;35.05;25.65;;;-0.20;99.90;;;;;;5063973;28;20456;-75
2022/12/15 11:40:44;;;;;;;40.45;27.63;;;-0.20;99.90;;;;;;5059172;28;20072;-76
2022/12/15 11:43:30;;;;;;;42.22;28.63;;;-0.10;99.90;;;;;;5065226;28;20098;-74
2022/12/15 11:46:17;;;;;;;35.28;24.80;;;-0.10;99.90;;;;;;5065661;28;20044;-75
2022/12/15 11:49:24;;;;;;;33.33;24.58;;;0.00;99.90;;;;;;5083254;28;20059;-75
2022/12/15 11:51:59;;;;;;;;;;;0.00;99.90;;;;;;5003615;28;20104;-75
2022/12/15 11:54:27;;;;;;;31.20;22.45;;;0.00;99.90;;;;;;4992824;28;19960;-75
2022/12/15 11:57:20;;;;;;;34.55;25.58;;;0.00;99.90;;;;;;5041046;28;20052;-75
2022/12/15 12:00:04;;;;;;;32.53;24.40;;;0.10;99.90;;;;;;5077092;28;20384;-77
2022/12/15 12:02:42;;;;;;;32.63;25.55;;;0.20;99.90;;;;;;5083444;28;20048;-73
2022/12/15 12:05:36;;;;;;;30.10;23.88;;;0.20;99.90;;;;;;5067740;28;20055;-74
2022/12/15 12:08:31;;;;;;;31.92;26.00;;;0.20;99.90;;;;;;5086047;28;20054;-79
2022/12/15 12:11:02;;;;;;;29.60;24.20;;;0.20;99.90;;;;;;5062488;28;20372;-77
2022/12/15 12:13:40;;;;;;;33.53;24.55;;;0.10;99.90;;;;;;5082156;28;20050;-80
2022/12/15 12:16:32;;;;;;;33.00;24.80;;;0.10;99.90;;;;;;5062876;28;20051;-78
2022/12/15 12:19:24;;;;;;;35.55;25.88;;;0.10;99.90;;;;;;5080375;28;20690;-81
2022/12/15 12:21:58;;;;;;;30.63;23.70;;;0.10;99.90;;;;;;5043344;28;20044;-78
2022/12/15 12:24:34;;;;;;;33.15;25.67;;;0.10;99.90;;;;;;5086149;28;20082;-76
2022/12/15 12:27:12;;;;;;;31.80;25.33;;;0.20;99.90;;;;;;5060424;28;20085;-74
2022/12/15 12:30:01;;;;;;;36.60;25.83;;;0.20;99.90;;;;;;5067084;28;20120;-77
2022/12/15 12:32:39;;;;;;;51.13;33.33;;;0.20;99.90;;;;;;5070512;28;20322;-77
2022/12/15 12:35:15;;;;;;;42.58;29.17;;;0.20;99.90;;;;;;5090454;28;20123;-74
2022/12/15 12:37:51;;;;;;;36.20;26.40;;;0.20;99.90;;;;;;5095243;27;20040;-75
2022/12/15 12:40:56;;;;;;;33.20;25.13;;;0.20;99.90;;;;;;5056795;28;20039;-77
2022/12/15 12:43:39;;;;;;;34.83;25.80;;;0.20;99.90;;;;;;5084697;28;20072;-77
2022/12/15 12:46:09;;;;;;;31.92;26.40;;;0.20;99.90;;;;;;5080726;28;20869;-77
2022/12/15 12:48:42;;;;;;;34.85;26.70;;;0.20;99.90;;;;;;5066576;28;20100;-78
2022/12/15 12:51:12;;;;;;;33.25;26.17;;;0.20;99.90;;;;;;5065231;28;20646;-78
2022/12/15 12:53:38;;;;;;;34.55;25.90;;;0.20;99.90;;;;;;5075833;28;20044;-79
2022/12/15 12:56:04;;;;;;;36.00;26.65;;;0.20;99.90;;;;;;5084410;28;20446;-79
2022/12/15 12:58:31;;;;;;;34.30;27.17;;;0.30;99.90;;;;;;5067611;28;20050;-78
2022/12/15 13:01:30;;;;;;;33.63;26.40;;;0.30;99.90;;;;;;5066145;28;20047;-81
2022/12/15 13:04:33;;;;;;;35.33;26.80;;;0.40;99.90;;;;;;5067148;28;20127;-79
2022/12/15 13:07:02;;;;;;;34.00;26.55;;;0.40;99.90;;;;;;5069720;28;20714;-78
2022/12/15 13:09:41;;;;;;;34.45;27.23;;;0.40;99.90;;;;;;5087676;28;20050;-77
2022/12/15 13:12:57;;;;;;;34.15;26.83;;;0.40;99.90;;;;;;5086111;28;20040;-78
2022/12/15 13:15:26;;;;;;;33.95;27.08;;;0.50;99.90;;;;;;5032941;28;20056;-80
2022/12/15 13:17:57;;;;;;;37.78;27.90;;;0.50;99.90;;;;;;5084057;28;20048;-80
2022/12/15 13:20:26;;;;;;;36.60;27.60;;;0.50;99.90;;;;;;5085300;28;20085;-80
2022/12/15 13:22:53;;;;;;;36.08;27.83;;;0.50;99.90;;;;;;5085482;28;20151;-81
2022/12/15 13:25:34;;;;;;;37.77;28.87;;;0.60;99.90;;;;;;5088387;28;20051;-80
2022/12/15 13:28:15;;;;;;;37.45;28.48;;;0.60;99.90;;;;;;5067213;28;20056;-82
2022/12/15 13:31:17;;;;;;;37.13;28.27;;;0.60;99.90;;;;;;5084686;28;20059;-83
2022/12/15 13:33:49;;;;;;;35.97;29.00;;;0.70;99.90;;;;;;5082554;28;20449;-84
2022/12/15 13:36:37;;;;;;;37.13;29.42;;;0.80;99.90;;;;;;5069016;28;20054;-84
2022/12/15 13:39:11;;;;;;;36.08;28.88;;;0.80;99.90;;;;;;5070136;28;20059;-84
2022/12/15 13:42:03;;;;;;;38.45;29.23;;;0.90;99.90;;;;;;5069747;28;20428;-84
2022/12/15 13:44:50;;;;;;;36.55;28.25;;;0.90;99.90;;;;;;5087558;28;20036;-83
2022/12/15 13:47:21;;;;;;;35.20;26.35;;;0.90;99.90;;;;;;5066001;28;20043;-84
2022/12/15 13:50:18;;;;;;;36.05;26.70;;;0.80;99.90;;;;;;5069216;28;20063;-84
2022/12/15 13:52:50;;;;;;;32.95;26.80;;;0.80;99.90;;;;;;5067462;28;20127;-84
2022/12/15 13:55:23;;;;;;;36.75;26.75;;;0.80;99.90;;;;;;5085704;28;20036;-83
2022/12/15 13:57:55;;;;;;;32.58;25.55;;;0.80;99.90;;;;;;5069836;28;20040;-84
2022/12/15 14:00:21;;;;;;;33.10;27.55;;;0.80;99.90;;;;;;5087665;28;20639;-84
2022/12/15 14:02:48;;;;;;;37.17;26.30;;;0.80;99.90;;;;;;5068978;28;20050;-84
2022/12/15 14:05:17;;;;;;;34.28;26.70;;;0.70;99.90;;;;;;5068889;28;20036;-84
2022/12/15 14:07:56;;;;;;;33.75;25.98;;;0.70;99.90;;;;;;5066215;28;20501;-78
2022/12/15 14:10:24;;;;;;;34.13;26.58;;;0.70;99.90;;;;;;5084139;28;20048;-81
2022/12/15 14:12:51;;;;;;;32.47;26.58;;;0.60;99.90;;;;;;5067745;28;20099;-81
2022/12/15 14:15:21;;;;;;;33.60;26.45;;;0.60;99.90;;;;;;5085190;28;20035;-81
2022/12/15 14:17:52;;;;;;;35.92;26.92;;;0.60;99.90;;;;;;5062669;28;20094;-81
2022/12/15 14:20:24;;;;;;;36.10;27.13;;;0.60;99.90;;;;;;5101838;28;20040;-85
2022/12/15 14:22:51;;;;;;;35.72;27.95;;;0.60;99.90;;;;;;5068824;28;20044;-81
2022/12/15 14:25:22;;;;;;;35.92;26.77;;;0.60;99.90;;;;;;5086374;28;20075;-79
2022/12/15 14:27:48;;;;;;;34.17;27.98;;;0.50;99.90;;;;;;5066598;28;20618;-81
2022/12/15 14:30:22;;;;;;;36.38;28.45;;;0.50;99.90;;;;;;5060655;28;20048;-81
2022/12/15 14:32:55;;;;;;;36.63;28.55;;;0.50;99.90;;;;;;5058574;28;20041;-80
2022/12/15 14:35:28;;;;;;;37.40;28.65;;;0.50;99.90;;;;;;5066736;28;20043;-85
2022/12/15 14:37:57;;;;;;;36.05;27.92;;;0.50;99.90;;;;;;5084103;28;20850;-82
2022/12/15 14:40:24;;;;;;;36.05;29.25;;;0.50;99.90;;;;;;5063593;28;20063;-84
2022/12/15 14:42:51;;;;;;;37.10;28.20;;;0.40;99.90;;;;;;5066436;28;20067;-83
2022/12/15 14:45:19;;;;;;;39.80;29.70;;;0.40;99.90;;;;;;5081224;28;20032;-82
2022/12/15 14:48:08;;;;;;;38.33;30.00;;;0.40;99.90;;;;;;5085612;28;20142;-75
2022/12/15 14:50:35;;;;;;;39.33;31.33;;;0.40;99.90;;;;;;5065950;28;20142;-78
2022/12/15 14:53:12;;;;;;;40.53;31.10;;;0.40;99.90;;;;;;5081590;28;20077;-79
2022/12/15 14:55:39;;;;;;;40.92;31.25;;;0.40;99.90;;;;;;5100118;28;20051;-84
2022/12/15 14:58:26;;;;;;;38.42;31.05;;;0.40;99.90;;;;;;5063659;28;20047;-82
2022/12/15 15:00:53;;;;;;;41.25;30.90;;;0.40;99.90;;;;;;5083625;28;20032;-78
2022/12/15 15:03:34;;;;;;;39.58;31.38;;;0.30;99.90;;;;;;5068134;28;20073;-78
2022/12/15 15:06:05;;;;;;;36.45;29.17;;;0.30;99.90;;;;;;5064266;28;20036;-80
2022/12/15 15:08:41;;;;;;;38.83;31.30;;;0.30;99.90;;;;;;5065947;28;20048;-82
2022/12/15 15:11:16;;;;;;;36.33;28.57;;;0.30;99.90;;;;;;5101859;28;20036;-82
2022/12/15 15:13:42;;;;;;;44.67;34.03;;;0.30;99.90;;;;;;5081392;28;20306;-82
2022/12/15 15:16:15;;;;;;;74.13;52.30;;;0.30;99.90;;;;;;5083691;28;20081;-82
2022/12/15 15:18:42;;;;;;;58.45;43.88;;;0.30;99.90;;;;;;5085476;28;20037;-82
2022/12/15 15:21:15;;;;;;;60.55;46.03;;;0.20;99.90;;;;;;5067797;28;20040;-82